sensor_id;sensor_type;location;lat;lon;timestamp;P1;durP1;ratioP1;P2;durP2;ratioP2
17528;SDS011;8882;53.192;8.184;2023-04-30T07:02:22;3.63;;;1.70;;
17528;SDS011;8882;53.192;8.184;2023-04-30T07:04:47;6.27;;;1.80;;
17528;SDS011;8882;53.192;8.184;2023-04-30T07:07:13;4.20;;;1.53;;
17528;SDS011;8882;53.192;8.184;2023-04-30T07:09:39;3.83;;;1.50;;
17528;SDS011;8882;53.192;8.184;2023-04-30T07:12:05;3.80;;;1.50;;
17528;SDS011;8882;53.192;8.184;2023-04-30T07:14:30;2.97;;;1.23;;
17528;SDS011;8882;53.192;8.184;2023-04-30T07:16:56;6.57;;;1.50;;
17528;SDS011;8882;53.192;8.184;2023-04-30T07:19:21;3.67;;;2.07;;
17528;SDS011;8882;53.192;8.184;2023-04-30T07:21:47;4.13;;;1.47;;
17528;SDS011;8882;53.192;8.184;2023-04-30T07:24:13;2.40;;;1.47;;
17528;SDS011;8882;53.192;8.184;2023-04-30T07:26:38;8.30;;;1.50;;
17528;SDS011;8882;53.192;8.184;2023-04-30T07:29:05;2.70;;;1.67;;
17528;SDS011;8882;53.192;8.184;2023-04-30T07:31:31;3.27;;;1.60;;
17528;SDS011;8882;53.192;8.184;2023-04-30T07:33:57;3.43;;;1.53;;
17528;SDS011;8882;53.192;8.184;2023-04-30T07:36:23;4.20;;;1.57;;
17528;SDS011;8882;53.192;8.184;2023-04-30T07:38:50;6.10;;;1.37;;
17528;SDS011;8882;53.192;8.184;2023-04-30T07:41:16;4.70;;;1.47;;
17528;SDS011;8882;53.192;8.184;2023-04-30T07:43:41;4.70;;;1.60;;
17528;SDS011;8882;53.192;8.184;2023-04-30T07:46:07;3.07;;;1.70;;
17528;SDS011;8882;53.192;8.184;2023-04-30T07:48:32;8.13;;;1.50;;
17528;SDS011;8882;53.192;8.184;2023-04-30T07:50:58;4.53;;;1.37;;
17528;SDS011;8882;53.192;8.184;2023-04-30T07:53:23;2.73;;;1.30;;
17528;SDS011;8882;53.192;8.184;2023-04-30T07:55:49;5.40;;;1.77;;
17528;SDS011;8882;53.192;8.184;2023-04-30T07:58:14;2.57;;;1.70;;
17528;SDS011;8882;53.192;8.184;2023-04-30T08:00:40;6.03;;;2.00;;
17528;SDS011;8882;53.192;8.184;2023-04-30T08:03:05;6.37;;;2.13;;
17528;SDS011;8882;53.192;8.184;2023-04-30T08:05:31;3.37;;;1.50;;
17528;SDS011;8882;53.192;8.184;2023-04-30T08:07:57;4.70;;;1.40;;
17528;SDS011;8882;53.192;8.184;2023-04-30T08:10:22;5.87;;;1.90;;
17528;SDS011;8882;53.192;8.184;2023-04-30T08:12:48;1.47;;;1.37;;
17528;SDS011;8882;53.192;8.184;2023-04-30T08:15:13;2.60;;;1.43;;
17528;SDS011;8882;53.192;8.184;2023-04-30T08:17:39;2.53;;;1.77;;
17528;SDS011;8882;53.192;8.184;2023-04-30T08:20:05;3.83;;;1.90;;
17528;SDS011;8882;53.192;8.184;2023-04-30T08:22:31;5.20;;;1.90;;
17528;SDS011;8882;53.192;8.184;2023-04-30T08:24:57;2.33;;;1.70;;
17528;SDS011;8882;53.192;8.184;2023-04-30T08:27:25;7.07;;;2.07;;
17528;SDS011;8882;53.192;8.184;2023-04-30T08:29:51;4.60;;;1.53;;
17528;SDS011;8882;53.192;8.184;2023-04-30T08:32:17;3.93;;;1.77;;
17528;SDS011;8882;53.192;8.184;2023-04-30T08:34:43;3.00;;;1.50;;
17528;SDS011;8882;53.192;8.184;2023-04-30T08:37:09;6.13;;;1.63;;
17528;SDS011;8882;53.192;8.184;2023-04-30T08:39:34;4.73;;;1.70;;
17528;SDS011;8882;53.192;8.184;2023-04-30T08:42:01;4.07;;;1.70;;
17528;SDS011;8882;53.192;8.184;2023-04-30T08:44:28;2.70;;;1.40;;
17528;SDS011;8882;53.192;8.184;2023-04-30T08:46:54;6.77;;;1.97;;
17528;SDS011;8882;53.192;8.184;2023-04-30T08:49:22;5.80;;;1.73;;
17528;SDS011;8882;53.192;8.184;2023-04-30T08:51:49;4.57;;;1.47;;
17528;SDS011;8882;53.192;8.184;2023-04-30T08:54:16;4.77;;;1.70;;
17528;SDS011;8882;53.192;8.184;2023-04-30T08:56:43;3.50;;;1.50;;
17528;SDS011;8882;53.192;8.184;2023-04-30T08:59:09;6.47;;;2.00;;
17528;SDS011;8882;53.192;8.184;2023-04-30T09:01:36;2.93;;;1.67;;
17528;SDS011;8882;53.192;8.184;2023-04-30T09:04:02;2.57;;;1.80;;
17528;SDS011;8882;53.192;8.184;2023-04-30T09:06:28;5.97;;;1.80;;
17528;SDS011;8882;53.192;8.184;2023-04-30T09:08:54;5.23;;;1.40;;
17528;SDS011;8882;53.192;8.184;2023-04-30T09:13:50;3.50;;;1.50;;
17528;SDS011;8882;53.192;8.184;2023-04-30T09:16:19;5.93;;;1.83;;
17528;SDS011;8882;53.192;8.184;2023-04-30T09:18:45;3.73;;;1.60;;
17528;SDS011;8882;53.192;8.184;2023-04-30T09:21:12;2.70;;;1.67;;
17528;SDS011;8882;53.192;8.184;2023-04-30T09:23:59;3.97;;;1.77;;
17528;SDS011;8882;53.192;8.184;2023-04-30T09:26:26;6.43;;;1.80;;
17528;SDS011;8882;53.192;8.184;2023-04-30T09:28:56;2.17;;;1.50;;
17528;SDS011;8882;53.192;8.184;2023-04-30T09:31:22;4.80;;;1.60;;
17528;SDS011;8882;53.192;8.184;2023-04-30T09:33:49;4.53;;;1.70;;
17528;SDS011;8882;53.192;8.184;2023-04-30T09:36:15;3.87;;;1.63;;
17528;SDS011;8882;53.192;8.184;2023-04-30T09:38:41;3.83;;;1.60;;
17528;SDS011;8882;53.192;8.184;2023-04-30T09:41:06;5.87;;;1.93;;
17528;SDS011;8882;53.192;8.184;2023-04-30T09:43:52;6.10;;;1.40;;
17528;SDS011;8882;53.192;8.184;2023-04-30T09:46:18;3.37;;;1.63;;
17528;SDS011;8882;53.192;8.184;2023-04-30T09:48:45;2.83;;;1.43;;
17528;SDS011;8882;53.192;8.184;2023-04-30T09:51:11;1.87;;;1.40;;
17528;SDS011;8882;53.192;8.184;2023-04-30T09:53:37;3.60;;;1.53;;
17528;SDS011;8882;53.192;8.184;2023-04-30T09:56:06;5.33;;;1.60;;
17528;SDS011;8882;53.192;8.184;2023-04-30T09:58:36;2.53;;;1.53;;
17528;SDS011;8882;53.192;8.184;2023-04-30T10:01:05;7.47;;;1.37;;
17528;SDS011;8882;53.192;8.184;2023-04-30T10:03:35;1.67;;;1.33;;
17528;SDS011;8882;53.192;8.184;2023-04-30T10:06:03;2.00;;;1.37;;
17528;SDS011;8882;53.192;8.184;2023-04-30T10:08:39;3.37;;;1.60;;
17528;SDS011;8882;53.192;8.184;2023-04-30T10:11:06;5.17;;;1.47;;
17528;SDS011;8882;53.192;8.184;2023-04-30T10:13:36;4.73;;;1.53;;
17528;SDS011;8882;53.192;8.184;2023-04-30T10:16:10;3.97;;;1.57;;
17528;SDS011;8882;53.192;8.184;2023-04-30T10:18:44;3.70;;;1.50;;
17528;SDS011;8882;53.192;8.184;2023-04-30T10:21:13;3.30;;;1.77;;
17528;SDS011;8882;53.192;8.184;2023-04-30T10:23:42;3.13;;;1.60;;
17528;SDS011;8882;53.192;8.184;2023-04-30T10:26:09;3.07;;;1.20;;
17528;SDS011;8882;53.192;8.184;2023-04-30T10:28:36;3.33;;;1.53;;
17528;SDS011;8882;53.192;8.184;2023-04-30T10:31:02;5.03;;;1.63;;
17528;SDS011;8882;53.192;8.184;2023-04-30T10:33:31;4.93;;;1.70;;
17528;SDS011;8882;53.192;8.184;2023-04-30T10:36:05;1.70;;;1.30;;
17528;SDS011;8882;53.192;8.184;2023-04-30T10:38:35;4.03;;;1.57;;
17528;SDS011;8882;53.192;8.184;2023-04-30T10:41:04;6.63;;;1.50;;
17528;SDS011;8882;53.192;8.184;2023-04-30T10:43:31;3.07;;;1.60;;
17528;SDS011;8882;53.192;8.184;2023-04-30T10:45:59;5.33;;;1.70;;
17528;SDS011;8882;53.192;8.184;2023-04-30T10:48:26;2.17;;;1.50;;
17528;SDS011;8882;53.192;8.184;2023-04-30T10:50:57;5.20;;;1.63;;
17528;SDS011;8882;53.192;8.184;2023-04-30T10:53:23;6.30;;;1.70;;
17528;SDS011;8882;53.192;8.184;2023-04-30T10:55:52;1.97;;;1.40;;
17528;SDS011;8882;53.192;8.184;2023-04-30T10:58:30;2.30;;;1.43;;
17528;SDS011;8882;53.192;8.184;2023-04-30T11:01:01;2.90;;;1.30;;
17528;SDS011;8882;53.192;8.184;2023-04-30T11:03:36;2.40;;;1.17;;
17528;SDS011;8882;53.192;8.184;2023-04-30T11:06:14;3.40;;;1.30;;
17528;SDS011;8882;53.192;8.184;2023-04-30T11:08:44;5.10;;;1.50;;
17528;SDS011;8882;53.192;8.184;2023-04-30T11:11:10;5.03;;;1.77;;
17528;SDS011;8882;53.192;8.184;2023-04-30T11:13:45;2.97;;;1.20;;
17528;SDS011;8882;53.192;8.184;2023-04-30T11:16:12;4.63;;;1.40;;
17528;SDS011;8882;53.192;8.184;2023-04-30T11:18:40;2.13;;;1.37;;
17528;SDS011;8882;53.192;8.184;2023-04-30T11:21:09;4.60;;;1.20;;
17528;SDS011;8882;53.192;8.184;2023-04-30T11:23:35;3.63;;;1.60;;
17528;SDS011;8882;53.192;8.184;2023-04-30T11:26:04;3.07;;;1.40;;
17528;SDS011;8882;53.192;8.184;2023-04-30T11:28:32;2.60;;;1.57;;
17528;SDS011;8882;53.192;8.184;2023-04-30T11:31:02;4.63;;;1.37;;
17528;SDS011;8882;53.192;8.184;2023-04-30T11:33:29;4.83;;;1.80;;
17528;SDS011;8882;53.192;8.184;2023-04-30T11:35:56;3.60;;;1.57;;
17528;SDS011;8882;53.192;8.184;2023-04-30T11:38:27;3.57;;;1.30;;
17528;SDS011;8882;53.192;8.184;2023-04-30T11:40:54;3.10;;;1.20;;
17528;SDS011;8882;53.192;8.184;2023-04-30T11:43:25;2.63;;;1.33;;
17528;SDS011;8882;53.192;8.184;2023-04-30T11:46:08;4.57;;;1.40;;
17528;SDS011;8882;53.192;8.184;2023-04-30T11:48:38;3.20;;;1.40;;
17528;SDS011;8882;53.192;8.184;2023-04-30T11:51:16;1.60;;;0.97;;
17528;SDS011;8882;53.192;8.184;2023-04-30T11:53:44;3.40;;;1.33;;
17528;SDS011;8882;53.192;8.184;2023-04-30T11:56:20;2.53;;;1.23;;
17528;SDS011;8882;53.192;8.184;2023-04-30T11:58:46;1.77;;;1.20;;
17528;SDS011;8882;53.192;8.184;2023-04-30T12:01:13;1.83;;;0.90;;
17528;SDS011;8882;53.192;8.184;2023-04-30T12:03:42;1.83;;;1.47;;
17528;SDS011;8882;53.192;8.184;2023-04-30T12:06:25;4.63;;;1.60;;
17528;SDS011;8882;53.192;8.184;2023-04-30T12:08:52;4.40;;;1.57;;
17528;SDS011;8882;53.192;8.184;2023-04-30T12:11:26;3.10;;;1.60;;
17528;SDS011;8882;53.192;8.184;2023-04-30T12:13:53;0.97;;;0.97;;
17528;SDS011;8882;53.192;8.184;2023-04-30T12:16:20;1.80;;;1.37;;
17528;SDS011;8882;53.192;8.184;2023-04-30T12:18:46;1.53;;;1.10;;
17528;SDS011;8882;53.192;8.184;2023-04-30T12:21:12;3.70;;;1.40;;
17528;SDS011;8882;53.192;8.184;2023-04-30T12:23:38;2.93;;;1.40;;
17528;SDS011;8882;53.192;8.184;2023-04-30T12:26:04;3.33;;;1.07;;
17528;SDS011;8882;53.192;8.184;2023-04-30T12:28:29;2.20;;;1.00;;
17528;SDS011;8882;53.192;8.184;2023-04-30T12:30:55;3.57;;;1.33;;
17528;SDS011;8882;53.192;8.184;2023-04-30T12:33:20;2.57;;;1.40;;
17528;SDS011;8882;53.192;8.184;2023-04-30T12:35:46;2.97;;;1.30;;
17528;SDS011;8882;53.192;8.184;2023-04-30T12:38:12;3.40;;;1.50;;
17528;SDS011;8882;53.192;8.184;2023-04-30T12:40:45;2.67;;;1.40;;
17528;SDS011;8882;53.192;8.184;2023-04-30T12:43:13;2.70;;;1.30;;
17528;SDS011;8882;53.192;8.184;2023-04-30T12:45:47;1.80;;;1.13;;
17528;SDS011;8882;53.192;8.184;2023-04-30T12:48:17;3.67;;;1.20;;
17528;SDS011;8882;53.192;8.184;2023-04-30T12:50:49;3.47;;;1.30;;
17528;SDS011;8882;53.192;8.184;2023-04-30T12:53:20;3.90;;;1.30;;
17528;SDS011;8882;53.192;8.184;2023-04-30T12:58:30;2.57;;;1.60;;
17528;SDS011;8882;53.192;8.184;2023-04-30T13:00:56;2.50;;;1.17;;
17528;SDS011;8882;53.192;8.184;2023-04-30T13:03:23;1.80;;;1.10;;
17528;SDS011;8882;53.192;8.184;2023-04-30T13:05:51;2.10;;;1.40;;
17528;SDS011;8882;53.192;8.184;2023-04-30T13:08:18;1.47;;;1.20;;
17528;SDS011;8882;53.192;8.184;2023-04-30T13:10:44;4.17;;;1.23;;
17528;SDS011;8882;53.192;8.184;2023-04-30T13:13:11;3.03;;;1.20;;
17528;SDS011;8882;53.192;8.184;2023-04-30T13:15:37;1.77;;;1.23;;
17528;SDS011;8882;53.192;8.184;2023-04-30T13:18:04;2.70;;;1.30;;
17528;SDS011;8882;53.192;8.184;2023-04-30T13:20:32;2.87;;;1.10;;
17528;SDS011;8882;53.192;8.184;2023-04-30T13:22:58;3.07;;;1.10;;
17528;SDS011;8882;53.192;8.184;2023-04-30T13:25:24;2.37;;;1.20;;
17528;SDS011;8882;53.192;8.184;2023-04-30T13:27:49;1.17;;;1.00;;
17528;SDS011;8882;53.192;8.184;2023-04-30T13:30:15;5.20;;;1.20;;
17528;SDS011;8882;53.192;8.184;2023-04-30T13:32:40;2.27;;;1.17;;
17528;SDS011;8882;53.192;8.184;2023-04-30T13:35:07;1.50;;;1.13;;
17528;SDS011;8882;53.192;8.184;2023-04-30T13:37:33;3.30;;;1.40;;
17528;SDS011;8882;53.192;8.184;2023-04-30T13:39:59;1.60;;;1.20;;
17528;SDS011;8882;53.192;8.184;2023-04-30T13:42:25;3.93;;;1.50;;
17528;SDS011;8882;53.192;8.184;2023-04-30T13:44:51;1.30;;;1.13;;
17528;SDS011;8882;53.192;8.184;2023-04-30T13:47:17;4.27;;;1.40;;
17528;SDS011;8882;53.192;8.184;2023-04-30T13:49:43;2.13;;;1.00;;
17528;SDS011;8882;53.192;8.184;2023-04-30T13:52:09;4.47;;;1.30;;
17528;SDS011;8882;53.192;8.184;2023-04-30T13:54:34;4.57;;;1.20;;
17528;SDS011;8882;53.192;8.184;2023-04-30T13:57:01;1.30;;;1.20;;
17528;SDS011;8882;53.192;8.184;2023-04-30T13:59:27;2.87;;;1.40;;
17528;SDS011;8882;53.192;8.184;2023-04-30T14:01:52;1.33;;;1.03;;
17528;SDS011;8882;53.192;8.184;2023-04-30T14:04:18;1.10;;;0.97;;
17528;SDS011;8882;53.192;8.184;2023-04-30T14:06:44;1.80;;;1.13;;
17528;SDS011;8882;53.192;8.184;2023-04-30T14:09:09;1.27;;;1.17;;
17528;SDS011;8882;53.192;8.184;2023-04-30T14:11:35;2.23;;;1.30;;
17528;SDS011;8882;53.192;8.184;2023-04-30T14:14:01;1.60;;;1.30;;
17528;SDS011;8882;53.192;8.184;2023-04-30T14:16:26;2.70;;;1.20;;
17528;SDS011;8882;53.192;8.184;2023-04-30T14:18:52;2.73;;;1.10;;
17528;SDS011;8882;53.192;8.184;2023-04-30T14:21:18;1.73;;;1.03;;
17528;SDS011;8882;53.192;8.184;2023-04-30T14:23:44;1.27;;;1.17;;
17528;SDS011;8882;53.192;8.184;2023-04-30T14:26:13;1.10;;;0.97;;
17528;SDS011;8882;53.192;8.184;2023-04-30T14:28:38;1.30;;;0.90;;
17528;SDS011;8882;53.192;8.184;2023-04-30T14:31:04;2.43;;;1.20;;
17528;SDS011;8882;53.192;8.184;2023-04-30T14:33:30;1.10;;;1.00;;
17528;SDS011;8882;53.192;8.184;2023-04-30T14:35:55;2.63;;;1.30;;
17528;SDS011;8882;53.192;8.184;2023-04-30T14:38:24;2.53;;;1.37;;
17528;SDS011;8882;53.192;8.184;2023-04-30T14:40:49;1.70;;;1.20;;
17528;SDS011;8882;53.192;8.184;2023-04-30T14:43:15;1.70;;;1.40;;
17528;SDS011;8882;53.192;8.184;2023-04-30T14:45:40;3.33;;;1.27;;
17528;SDS011;8882;53.192;8.184;2023-04-30T14:48:08;3.40;;;1.87;;
17528;SDS011;8882;53.192;8.184;2023-04-30T14:50:33;2.73;;;1.10;;
17528;SDS011;8882;53.192;8.184;2023-04-30T14:52:59;1.80;;;1.27;;
17528;SDS011;8882;53.192;8.184;2023-04-30T14:55:24;2.53;;;1.10;;
17528;SDS011;8882;53.192;8.184;2023-04-30T14:57:49;0.90;;;0.90;;
17528;SDS011;8882;53.192;8.184;2023-04-30T15:00:15;1.00;;;1.00;;
17528;SDS011;8882;53.192;8.184;2023-04-30T15:02:41;2.20;;;1.00;;
17528;SDS011;8882;53.192;8.184;2023-04-30T15:05:06;1.00;;;0.90;;
17528;SDS011;8882;53.192;8.184;2023-04-30T15:07:32;3.23;;;1.30;;
17528;SDS011;8882;53.192;8.184;2023-04-30T15:09:58;0.90;;;0.90;;
17528;SDS011;8882;53.192;8.184;2023-04-30T15:12:24;2.90;;;1.50;;
17528;SDS011;8882;53.192;8.184;2023-04-30T15:14:49;1.00;;;0.90;;
17528;SDS011;8882;53.192;8.184;2023-04-30T15:17:15;2.70;;;1.33;;
17528;SDS011;8882;53.192;8.184;2023-04-30T15:19:40;1.43;;;0.97;;
17528;SDS011;8882;53.192;8.184;2023-04-30T15:22:06;2.27;;;1.50;;
17528;SDS011;8882;53.192;8.184;2023-04-30T15:24:31;2.47;;;1.30;;
17528;SDS011;8882;53.192;8.184;2023-04-30T15:26:58;2.23;;;1.13;;
17528;SDS011;8882;53.192;8.184;2023-04-30T15:29:23;2.57;;;1.00;;
17528;SDS011;8882;53.192;8.184;2023-04-30T15:31:49;4.37;;;1.20;;
17528;SDS011;8882;53.192;8.184;2023-04-30T15:34:19;1.50;;;1.27;;
17528;SDS011;8882;53.192;8.184;2023-04-30T15:36:45;4.63;;;1.63;;
17528;SDS011;8882;53.192;8.184;2023-04-30T15:39:11;1.10;;;1.00;;
17528;SDS011;8882;53.192;8.184;2023-04-30T15:41:37;4.17;;;1.00;;
17528;SDS011;8882;53.192;8.184;2023-04-30T15:44:02;1.50;;;1.03;;
17528;SDS011;8882;53.192;8.184;2023-04-30T15:46:28;2.20;;;1.10;;
17528;SDS011;8882;53.192;8.184;2023-04-30T15:48:54;1.10;;;1.00;;
17528;SDS011;8882;53.192;8.184;2023-04-30T15:51:20;1.60;;;1.40;;
17528;SDS011;8882;53.192;8.184;2023-04-30T15:53:46;4.27;;;1.27;;
17528;SDS011;8882;53.192;8.184;2023-04-30T15:56:11;2.40;;;1.17;;
17528;SDS011;8882;53.192;8.184;2023-04-30T15:58:37;1.67;;;1.07;;
17528;SDS011;8882;53.192;8.184;2023-04-30T16:01:03;4.60;;;1.43;;
17528;SDS011;8882;53.192;8.184;2023-04-30T16:03:29;1.40;;;1.03;;
17528;SDS011;8882;53.192;8.184;2023-04-30T16:05:55;2.67;;;1.27;;
17528;SDS011;8882;53.192;8.184;2023-04-30T16:08:20;1.73;;;1.00;;
17528;SDS011;8882;53.192;8.184;2023-04-30T16:10:46;1.50;;;1.07;;
17528;SDS011;8882;53.192;8.184;2023-04-30T16:13:12;1.33;;;1.20;;
17528;SDS011;8882;53.192;8.184;2023-04-30T16:15:38;2.53;;;1.23;;
17528;SDS011;8882;53.192;8.184;2023-04-30T16:18:03;1.43;;;1.10;;
17528;SDS011;8882;53.192;8.184;2023-04-30T16:20:29;2.80;;;0.93;;
17528;SDS011;8882;53.192;8.184;2023-04-30T16:22:55;3.43;;;1.20;;
17528;SDS011;8882;53.192;8.184;2023-04-30T16:25:21;2.10;;;1.00;;
17528;SDS011;8882;53.192;8.184;2023-04-30T16:27:47;2.37;;;1.10;;
17528;SDS011;8882;53.192;8.184;2023-04-30T16:30:13;1.97;;;1.47;;
17528;SDS011;8882;53.192;8.184;2023-04-30T16:32:39;2.70;;;1.50;;
17528;SDS011;8882;53.192;8.184;2023-04-30T16:35:05;3.97;;;1.20;;
17528;SDS011;8882;53.192;8.184;2023-04-30T16:37:31;2.03;;;1.30;;
17528;SDS011;8882;53.192;8.184;2023-04-30T16:39:56;3.13;;;1.30;;
17528;SDS011;8882;53.192;8.184;2023-04-30T16:42:23;1.63;;;1.00;;
17528;SDS011;8882;53.192;8.184;2023-04-30T16:44:48;1.47;;;1.37;;
17528;SDS011;8882;53.192;8.184;2023-04-30T16:47:14;3.73;;;1.40;;
17528;SDS011;8882;53.192;8.184;2023-04-30T16:49:42;3.07;;;1.33;;
17528;SDS011;8882;53.192;8.184;2023-04-30T16:52:08;3.43;;;1.23;;
17528;SDS011;8882;53.192;8.184;2023-04-30T16:54:33;2.67;;;1.40;;
17528;SDS011;8882;53.192;8.184;2023-04-30T16:56:59;2.23;;;1.43;;
17528;SDS011;8882;53.192;8.184;2023-04-30T16:59:24;3.10;;;1.17;;
17528;SDS011;8882;53.192;8.184;2023-04-30T17:01:50;7.03;;;1.57;;
17528;SDS011;8882;53.192;8.184;2023-04-30T17:04:20;2.43;;;1.30;;
17528;SDS011;8882;53.192;8.184;2023-04-30T17:06:46;1.73;;;1.30;;
17528;SDS011;8882;53.192;8.184;2023-04-30T17:09:11;2.40;;;1.20;;
17528;SDS011;8882;53.192;8.184;2023-04-30T17:11:37;1.37;;;1.20;;
17528;SDS011;8882;53.192;8.184;2023-04-30T17:14:02;2.00;;;1.20;;
17528;SDS011;8882;53.192;8.184;2023-04-30T17:16:28;2.40;;;1.30;;
17528;SDS011;8882;53.192;8.184;2023-04-30T17:18:54;1.77;;;1.23;;
17528;SDS011;8882;53.192;8.184;2023-04-30T17:21:19;2.40;;;1.07;;
17528;SDS011;8882;53.192;8.184;2023-04-30T17:23:45;3.70;;;1.40;;
17528;SDS011;8882;53.192;8.184;2023-04-30T17:26:10;5.57;;;1.73;;
17528;SDS011;8882;53.192;8.184;2023-04-30T17:28:36;4.50;;;1.23;;
17528;SDS011;8882;53.192;8.184;2023-04-30T17:31:01;2.87;;;1.30;;
17528;SDS011;8882;53.192;8.184;2023-04-30T17:33:30;2.50;;;1.40;;
17528;SDS011;8882;53.192;8.184;2023-04-30T17:35:56;2.00;;;1.60;;
17528;SDS011;8882;53.192;8.184;2023-04-30T17:38:22;2.87;;;1.53;;
17528;SDS011;8882;53.192;8.184;2023-04-30T17:40:48;2.10;;;1.30;;
17528;SDS011;8882;53.192;8.184;2023-04-30T17:43:14;2.33;;;1.40;;
17528;SDS011;8882;53.192;8.184;2023-04-30T17:45:39;3.83;;;1.40;;
17528;SDS011;8882;53.192;8.184;2023-04-30T17:48:05;2.20;;;1.47;;
17528;SDS011;8882;53.192;8.184;2023-04-30T17:50:31;2.20;;;1.33;;
17528;SDS011;8882;53.192;8.184;2023-04-30T17:52:57;2.33;;;1.37;;
17528;SDS011;8882;53.192;8.184;2023-04-30T17:55:22;2.87;;;1.50;;
17528;SDS011;8882;53.192;8.184;2023-04-30T17:57:49;4.27;;;1.37;;
17528;SDS011;8882;53.192;8.184;2023-04-30T18:00:15;4.43;;;1.47;;
17528;SDS011;8882;53.192;8.184;2023-04-30T18:02:41;4.33;;;2.40;;
17528;SDS011;8882;53.192;8.184;2023-04-30T18:05:07;2.73;;;1.70;;
17528;SDS011;8882;53.192;8.184;2023-04-30T18:07:34;4.20;;;1.80;;
17528;SDS011;8882;53.192;8.184;2023-04-30T18:09:59;2.63;;;1.60;;
17528;SDS011;8882;53.192;8.184;2023-04-30T18:12:25;3.27;;;1.80;;
17528;SDS011;8882;53.192;8.184;2023-04-30T18:14:50;3.13;;;2.40;;
17528;SDS011;8882;53.192;8.184;2023-04-30T18:17:16;4.63;;;2.47;;
17528;SDS011;8882;53.192;8.184;2023-04-30T18:19:42;3.10;;;1.97;;
17528;SDS011;8882;53.192;8.184;2023-04-30T18:22:08;4.20;;;2.20;;
17528;SDS011;8882;53.192;8.184;2023-04-30T18:24:36;3.10;;;1.97;;
17528;SDS011;8882;53.192;8.184;2023-04-30T18:27:03;2.43;;;1.90;;
17528;SDS011;8882;53.192;8.184;2023-04-30T18:29:29;2.50;;;1.40;;
17528;SDS011;8882;53.192;8.184;2023-04-30T18:31:54;1.70;;;1.60;;
17528;SDS011;8882;53.192;8.184;2023-04-30T18:34:21;8.63;;;1.77;;
17528;SDS011;8882;53.192;8.184;2023-04-30T18:36:47;1.87;;;1.53;;
17528;SDS011;8882;53.192;8.184;2023-04-30T18:39:13;3.80;;;1.60;;
17528;SDS011;8882;53.192;8.184;2023-04-30T18:41:38;1.87;;;1.37;;
17528;SDS011;8882;53.192;8.184;2023-04-30T18:44:05;2.83;;;1.10;;
17528;SDS011;8882;53.192;8.184;2023-04-30T18:46:31;1.23;;;1.10;;
17528;SDS011;8882;53.192;8.184;2023-04-30T18:48:56;2.63;;;1.30;;
17528;SDS011;8882;53.192;8.184;2023-04-30T18:51:22;1.20;;;1.10;;
17528;SDS011;8882;53.192;8.184;2023-04-30T18:53:48;1.47;;;1.13;;
17528;SDS011;8882;53.192;8.184;2023-04-30T18:56:14;3.20;;;1.20;;
17528;SDS011;8882;53.192;8.184;2023-04-30T18:58:43;0.93;;;0.93;;
17528;SDS011;8882;53.192;8.184;2023-04-30T19:01:10;1.50;;;1.10;;
17528;SDS011;8882;53.192;8.184;2023-04-30T19:03:36;1.23;;;1.03;;
17528;SDS011;8882;53.192;8.184;2023-04-30T19:06:01;1.90;;;1.20;;
17528;SDS011;8882;53.192;8.184;2023-04-30T19:08:27;2.03;;;1.10;;
17528;SDS011;8882;53.192;8.184;2023-04-30T19:10:53;0.90;;;0.90;;
17528;SDS011;8882;53.192;8.184;2023-04-30T19:13:19;2.87;;;1.07;;
17528;SDS011;8882;53.192;8.184;2023-04-30T19:15:45;3.53;;;1.13;;
17528;SDS011;8882;53.192;8.184;2023-04-30T19:18:12;4.03;;;1.23;;
17528;SDS011;8882;53.192;8.184;2023-04-30T19:20:40;1.20;;;1.10;;
17528;SDS011;8882;53.192;8.184;2023-04-30T19:23:06;2.00;;;1.40;;
17528;SDS011;8882;53.192;8.184;2023-04-30T19:25:33;1.03;;;1.00;;
17528;SDS011;8882;53.192;8.184;2023-04-30T19:28:00;4.10;;;1.67;;
17528;SDS011;8882;53.192;8.184;2023-04-30T19:30:26;1.53;;;1.43;;
17528;SDS011;8882;53.192;8.184;2023-04-30T19:32:51;2.97;;;1.50;;
17528;SDS011;8882;53.192;8.184;2023-04-30T19:35:17;1.47;;;1.37;;
17528;SDS011;8882;53.192;8.184;2023-04-30T19:37:42;4.23;;;1.50;;
17528;SDS011;8882;53.192;8.184;2023-04-30T19:40:08;2.33;;;1.70;;
17528;SDS011;8882;53.192;8.184;2023-04-30T19:42:35;3.47;;;1.77;;
17528;SDS011;8882;53.192;8.184;2023-04-30T19:45:01;4.47;;;1.53;;
17528;SDS011;8882;53.192;8.184;2023-04-30T19:47:27;7.00;;;1.70;;
17528;SDS011;8882;53.192;8.184;2023-04-30T19:49:53;4.10;;;1.83;;
17528;SDS011;8882;53.192;8.184;2023-04-30T19:52:18;4.13;;;1.87;;
17528;SDS011;8882;53.192;8.184;2023-04-30T19:54:44;2.30;;;2.07;;
17528;SDS011;8882;53.192;8.184;2023-04-30T19:57:13;7.77;;;2.20;;
17528;SDS011;8882;53.192;8.184;2023-04-30T19:59:38;4.47;;;2.70;;
17528;SDS011;8882;53.192;8.184;2023-04-30T20:02:04;4.83;;;2.30;;
17528;SDS011;8882;53.192;8.184;2023-04-30T20:04:31;7.93;;;2.70;;
17528;SDS011;8882;53.192;8.184;2023-04-30T20:06:57;2.97;;;1.87;;
17528;SDS011;8882;53.192;8.184;2023-04-30T20:09:24;3.17;;;2.13;;
17528;SDS011;8882;53.192;8.184;2023-04-30T20:11:50;4.80;;;2.13;;
17528;SDS011;8882;53.192;8.184;2023-04-30T20:14:16;3.90;;;1.97;;
17528;SDS011;8882;53.192;8.184;2023-04-30T20:16:42;3.03;;;2.17;;
17528;SDS011;8882;53.192;8.184;2023-04-30T20:19:08;4.63;;;2.20;;
17528;SDS011;8882;53.192;8.184;2023-04-30T20:21:34;4.37;;;2.20;;
17528;SDS011;8882;53.192;8.184;2023-04-30T20:24:00;3.23;;;2.30;;
17528;SDS011;8882;53.192;8.184;2023-04-30T20:26:25;5.73;;;2.60;;
17528;SDS011;8882;53.192;8.184;2023-04-30T20:28:52;4.63;;;2.33;;
17528;SDS011;8882;53.192;8.184;2023-04-30T20:31:18;3.70;;;1.67;;
17528;SDS011;8882;53.192;8.184;2023-04-30T20:33:43;6.23;;;2.13;;
17528;SDS011;8882;53.192;8.184;2023-04-30T20:36:10;4.73;;;2.23;;
17528;SDS011;8882;53.192;8.184;2023-04-30T20:38:36;3.70;;;2.07;;
17528;SDS011;8882;53.192;8.184;2023-04-30T20:41:02;5.70;;;2.30;;
17528;SDS011;8882;53.192;8.184;2023-04-30T20:43:27;4.50;;;1.80;;
17528;SDS011;8882;53.192;8.184;2023-04-30T20:45:56;2.80;;;1.83;;
17528;SDS011;8882;53.192;8.184;2023-04-30T20:48:24;2.53;;;1.60;;
17528;SDS011;8882;53.192;8.184;2023-04-30T20:50:50;2.23;;;1.43;;
17528;SDS011;8882;53.192;8.184;2023-04-30T20:53:16;6.13;;;2.10;;
17528;SDS011;8882;53.192;8.184;2023-04-30T20:55:42;4.23;;;1.70;;
17528;SDS011;8882;53.192;8.184;2023-04-30T20:58:08;2.63;;;1.57;;
